Terminal Aerodrome Forecast
Issued by NWS

Home | Current Version | Previous Version | Text Only | Print | Product List | Glossary On
Versions: 1 2 3 4 5 6 7 8 9 10 11 12 13 14
415
FTUS43 KDTX 250303 AAA
TAFDET
TAF AMD
KDET 250303Z 2503/2524 21013KT P6SM SCT200
     FM251000 23008KT P6SM SCT028 BKN035 OVC100
     FM251300 28010KT P6SM SCT018 OVC025
     FM251700 30013G20KT P6SM BKN035=

USA.gov is the U.S. government's official web portal to all federal, state and local government web resources and services.